sensor_id;sensor_type;location;lat;lon;timestamp;P1;durP1;ratioP1;P2;durP2;ratioP2
72273;SDS011;60208;48.692;8.948;2023-07-28T00:02:03;4.57;;;3.72;;
72273;SDS011;60208;48.692;8.948;2023-07-28T00:04:29;4.50;;;4.10;;
72273;SDS011;60208;48.692;8.948;2023-07-28T00:06:54;6.60;;;4.20;;
72273;SDS011;60208;48.692;8.948;2023-07-28T00:09:20;4.80;;;4.30;;
72273;SDS011;60208;48.692;8.948;2023-07-28T00:11:47;4.60;;;4.20;;
72273;SDS011;60208;48.692;8.948;2023-07-28T00:14:13;5.60;;;4.00;;
72273;SDS011;60208;48.692;8.948;2023-07-28T00:16:38;3.97;;;3.67;;
72273;SDS011;60208;48.692;8.948;2023-07-28T00:19:03;4.18;;;3.75;;
72273;SDS011;60208;48.692;8.948;2023-07-28T00:21:29;4.70;;;3.80;;
72273;SDS011;60208;48.692;8.948;2023-07-28T00:23:54;4.40;;;3.97;;
72273;SDS011;60208;48.692;8.948;2023-07-28T00:26:20;4.10;;;3.70;;
72273;SDS011;60208;48.692;8.948;2023-07-28T00:28:45;5.10;;;3.78;;
72273;SDS011;60208;48.692;8.948;2023-07-28T00:31:11;6.10;;;3.67;;
72273;SDS011;60208;48.692;8.948;2023-07-28T00:33:37;4.63;;;3.92;;
72273;SDS011;60208;48.692;8.948;2023-07-28T00:36:02;5.32;;;4.00;;
72273;SDS011;60208;48.692;8.948;2023-07-28T00:38:28;4.93;;;4.20;;
72273;SDS011;60208;48.692;8.948;2023-07-28T00:40:53;4.65;;;4.15;;
72273;SDS011;60208;48.692;8.948;2023-07-28T00:43:19;6.50;;;4.15;;
72273;SDS011;60208;48.692;8.948;2023-07-28T00:45:44;6.43;;;3.88;;
72273;SDS011;60208;48.692;8.948;2023-07-28T00:48:12;4.57;;;3.67;;
72273;SDS011;60208;48.692;8.948;2023-07-28T00:50:39;4.43;;;3.90;;
72273;SDS011;60208;48.692;8.948;2023-07-28T00:53:06;4.60;;;3.83;;
72273;SDS011;60208;48.692;8.948;2023-07-28T00:55:32;4.57;;;3.92;;
72273;SDS011;60208;48.692;8.948;2023-07-28T00:57:57;4.85;;;4.10;;
72273;SDS011;60208;48.692;8.948;2023-07-28T01:00:22;6.07;;;3.90;;
72273;SDS011;60208;48.692;8.948;2023-07-28T01:02:48;6.18;;;4.25;;
72273;SDS011;60208;48.692;8.948;2023-07-28T01:05:13;7.05;;;4.45;;
72273;SDS011;60208;48.692;8.948;2023-07-28T01:10:26;5.20;;;3.45;;
72273;SDS011;60208;48.692;8.948;2023-07-28T01:12:53;6.25;;;4.10;;
72273;SDS011;60208;48.692;8.948;2023-07-28T01:15:19;4.95;;;3.80;;
72273;SDS011;60208;48.692;8.948;2023-07-28T01:17:44;4.45;;;3.78;;
72273;SDS011;60208;48.692;8.948;2023-07-28T01:20:10;5.88;;;3.58;;
72273;SDS011;60208;48.692;8.948;2023-07-28T01:22:50;6.28;;;3.80;;
72273;SDS011;60208;48.692;8.948;2023-07-28T01:25:21;4.50;;;3.40;;
72273;SDS011;60208;48.692;8.948;2023-07-28T01:27:59;6.93;;;3.60;;
72273;SDS011;60208;48.692;8.948;2023-07-28T01:30:25;4.07;;;3.40;;
72273;SDS011;60208;48.692;8.948;2023-07-28T01:32:55;4.07;;;3.20;;
72273;SDS011;60208;48.692;8.948;2023-07-28T01:35:21;4.93;;;3.63;;
72273;SDS011;60208;48.692;8.948;2023-07-28T01:37:47;4.10;;;3.70;;
72273;SDS011;60208;48.692;8.948;2023-07-28T01:40:16;4.35;;;3.30;;
72273;SDS011;60208;48.692;8.948;2023-07-28T01:42:42;5.70;;;3.13;;
72273;SDS011;60208;48.692;8.948;2023-07-28T01:45:07;3.55;;;3.20;;
72273;SDS011;60208;48.692;8.948;2023-07-28T01:47:33;3.72;;;3.38;;
72273;SDS011;60208;48.692;8.948;2023-07-28T01:49:59;6.55;;;3.20;;
72273;SDS011;60208;48.692;8.948;2023-07-28T01:52:24;3.85;;;3.30;;
72273;SDS011;60208;48.692;8.948;2023-07-28T01:54:49;4.93;;;2.97;;
72273;SDS011;60208;48.692;8.948;2023-07-28T01:57:15;3.55;;;3.10;;
72273;SDS011;60208;48.692;8.948;2023-07-28T01:59:41;4.28;;;3.25;;
72273;SDS011;60208;48.692;8.948;2023-07-28T02:02:06;4.00;;;3.22;;
72273;SDS011;60208;48.692;8.948;2023-07-28T02:04:31;4.93;;;3.30;;
72273;SDS011;60208;48.692;8.948;2023-07-28T02:06:57;4.10;;;3.17;;
72273;SDS011;60208;48.692;8.948;2023-07-28T02:09:22;3.75;;;3.28;;
72273;SDS011;60208;48.692;8.948;2023-07-28T02:11:47;3.83;;;3.13;;
72273;SDS011;60208;48.692;8.948;2023-07-28T02:14:13;5.10;;;3.15;;
72273;SDS011;60208;48.692;8.948;2023-07-28T02:16:38;4.28;;;2.85;;
72273;SDS011;60208;48.692;8.948;2023-07-28T02:19:03;3.60;;;3.13;;
72273;SDS011;60208;48.692;8.948;2023-07-28T02:21:29;3.33;;;3.03;;
72273;SDS011;60208;48.692;8.948;2023-07-28T02:23:54;3.75;;;3.28;;
72273;SDS011;60208;48.692;8.948;2023-07-28T02:26:20;3.33;;;3.03;;
72273;SDS011;60208;48.692;8.948;2023-07-28T02:28:45;4.70;;;3.30;;
72273;SDS011;60208;48.692;8.948;2023-07-28T02:31:10;4.90;;;3.28;;
72273;SDS011;60208;48.692;8.948;2023-07-28T02:33:36;4.18;;;3.30;;
72273;SDS011;60208;48.692;8.948;2023-07-28T02:36:02;3.85;;;3.17;;
72273;SDS011;60208;48.692;8.948;2023-07-28T02:38:30;3.55;;;3.10;;
72273;SDS011;60208;48.692;8.948;2023-07-28T02:40:56;5.10;;;3.42;;
72273;SDS011;60208;48.692;8.948;2023-07-28T02:43:22;3.72;;;2.78;;
72273;SDS011;60208;48.692;8.948;2023-07-28T02:45:48;5.80;;;3.08;;
72273;SDS011;60208;48.692;8.948;2023-07-28T02:48:18;3.97;;;2.97;;
72273;SDS011;60208;48.692;8.948;2023-07-28T02:50:47;4.03;;;3.05;;
72273;SDS011;60208;48.692;8.948;2023-07-28T02:53:15;4.18;;;2.83;;
72273;SDS011;60208;48.692;8.948;2023-07-28T02:55:41;3.65;;;2.83;;
72273;SDS011;60208;48.692;8.948;2023-07-28T02:58:09;5.10;;;3.10;;
72273;SDS011;60208;48.692;8.948;2023-07-28T03:00:42;2.83;;;2.55;;
72273;SDS011;60208;48.692;8.948;2023-07-28T03:03:09;3.45;;;2.22;;
72273;SDS011;60208;48.692;8.948;2023-07-28T03:05:38;5.72;;;2.83;;
72273;SDS011;60208;48.692;8.948;2023-07-28T03:08:04;3.70;;;2.72;;
72273;SDS011;60208;48.692;8.948;2023-07-28T03:10:30;2.70;;;2.50;;
72273;SDS011;60208;48.692;8.948;2023-07-28T03:12:58;6.97;;;2.50;;
72273;SDS011;60208;48.692;8.948;2023-07-28T03:15:23;2.83;;;2.53;;
72273;SDS011;60208;48.692;8.948;2023-07-28T03:17:49;3.60;;;2.80;;
72273;SDS011;60208;48.692;8.948;2023-07-28T03:20:15;3.00;;;2.70;;
72273;SDS011;60208;48.692;8.948;2023-07-28T03:22:41;3.90;;;2.67;;
72273;SDS011;60208;48.692;8.948;2023-07-28T03:25:06;3.10;;;2.80;;
72273;SDS011;60208;48.692;8.948;2023-07-28T03:27:32;4.88;;;2.85;;
72273;SDS011;60208;48.692;8.948;2023-07-28T03:29:57;4.43;;;2.70;;
72273;SDS011;60208;48.692;8.948;2023-07-28T03:32:23;4.10;;;2.72;;
72273;SDS011;60208;48.692;8.948;2023-07-28T03:34:48;2.80;;;2.60;;
72273;SDS011;60208;48.692;8.948;2023-07-28T03:37:14;3.13;;;2.78;;
72273;SDS011;60208;48.692;8.948;2023-07-28T03:39:39;2.78;;;2.40;;
72273;SDS011;60208;48.692;8.948;2023-07-28T03:42:04;4.90;;;2.58;;
72273;SDS011;60208;48.692;8.948;2023-07-28T03:44:30;2.53;;;2.33;;
72273;SDS011;60208;48.692;8.948;2023-07-28T03:46:55;2.75;;;2.50;;
72273;SDS011;60208;48.692;8.948;2023-07-28T03:49:21;4.57;;;2.38;;
72273;SDS011;60208;48.692;8.948;2023-07-28T03:51:46;4.28;;;2.70;;
72273;SDS011;60208;48.692;8.948;2023-07-28T03:54:12;3.65;;;2.80;;
72273;SDS011;60208;48.692;8.948;2023-07-28T03:56:37;3.45;;;2.60;;
72273;SDS011;60208;48.692;8.948;2023-07-28T03:59:03;3.38;;;2.72;;
72273;SDS011;60208;48.692;8.948;2023-07-28T04:01:28;3.50;;;2.70;;
72273;SDS011;60208;48.692;8.948;2023-07-28T04:03:53;3.55;;;2.97;;
72273;SDS011;60208;48.692;8.948;2023-07-28T04:06:19;3.38;;;2.75;;
72273;SDS011;60208;48.692;8.948;2023-07-28T04:08:44;3.22;;;2.90;;
72273;SDS011;60208;48.692;8.948;2023-07-28T04:11:10;2.88;;;2.60;;
72273;SDS011;60208;48.692;8.948;2023-07-28T04:13:35;3.80;;;2.88;;
72273;SDS011;60208;48.692;8.948;2023-07-28T04:16:01;4.63;;;2.85;;
72273;SDS011;60208;48.692;8.948;2023-07-28T04:18:26;4.90;;;3.40;;
72273;SDS011;60208;48.692;8.948;2023-07-28T04:20:53;4.93;;;3.10;;
72273;SDS011;60208;48.692;8.948;2023-07-28T04:23:19;5.63;;;2.90;;
72273;SDS011;60208;48.692;8.948;2023-07-28T04:25:44;3.15;;;2.80;;
72273;SDS011;60208;48.692;8.948;2023-07-28T04:28:09;6.32;;;3.30;;
72273;SDS011;60208;48.692;8.948;2023-07-28T04:30:35;6.20;;;3.28;;
72273;SDS011;60208;48.692;8.948;2023-07-28T04:33:00;5.28;;;3.08;;
72273;SDS011;60208;48.692;8.948;2023-07-28T04:35:26;6.68;;;3.50;;
72273;SDS011;60208;48.692;8.948;2023-07-28T04:37:51;5.13;;;3.20;;
72273;SDS011;60208;48.692;8.948;2023-07-28T04:40:17;7.05;;;3.35;;
72273;SDS011;60208;48.692;8.948;2023-07-28T04:42:42;5.47;;;3.50;;
72273;SDS011;60208;48.692;8.948;2023-07-28T04:45:08;4.53;;;3.47;;
72273;SDS011;60208;48.692;8.948;2023-07-28T04:47:34;5.43;;;3.67;;
72273;SDS011;60208;48.692;8.948;2023-07-28T04:49:59;4.75;;;3.55;;
72273;SDS011;60208;48.692;8.948;2023-07-28T04:52:25;5.57;;;3.28;;
72273;SDS011;60208;48.692;8.948;2023-07-28T04:54:50;5.45;;;3.25;;
72273;SDS011;60208;48.692;8.948;2023-07-28T04:57:15;4.55;;;3.22;;
72273;SDS011;60208;48.692;8.948;2023-07-28T04:59:43;5.13;;;3.50;;
72273;SDS011;60208;48.692;8.948;2023-07-28T05:02:08;4.57;;;3.65;;
72273;SDS011;60208;48.692;8.948;2023-07-28T05:04:33;5.90;;;3.88;;
72273;SDS011;60208;48.692;8.948;2023-07-28T05:07:00;5.63;;;3.65;;
72273;SDS011;60208;48.692;8.948;2023-07-28T05:09:26;5.22;;;3.65;;
72273;SDS011;60208;48.692;8.948;2023-07-28T05:11:53;4.95;;;3.78;;
72273;SDS011;60208;48.692;8.948;2023-07-28T05:14:19;7.60;;;3.90;;
72273;SDS011;60208;48.692;8.948;2023-07-28T05:16:44;5.18;;;3.70;;
72273;SDS011;60208;48.692;8.948;2023-07-28T05:19:09;4.90;;;3.70;;
72273;SDS011;60208;48.692;8.948;2023-07-28T05:21:35;6.28;;;4.03;;
72273;SDS011;60208;48.692;8.948;2023-07-28T05:24:00;4.38;;;3.75;;
72273;SDS011;60208;48.692;8.948;2023-07-28T05:26:25;7.53;;;4.07;;
72273;SDS011;60208;48.692;8.948;2023-07-28T05:28:51;4.40;;;3.78;;
72273;SDS011;60208;48.692;8.948;2023-07-28T05:31:16;5.15;;;3.85;;
72273;SDS011;60208;48.692;8.948;2023-07-28T05:33:42;7.93;;;4.03;;
72273;SDS011;60208;48.692;8.948;2023-07-28T05:36:07;3.75;;;3.35;;
72273;SDS011;60208;48.692;8.948;2023-07-28T05:38:33;4.75;;;3.80;;
72273;SDS011;60208;48.692;8.948;2023-07-28T05:40:59;6.00;;;4.20;;
72273;SDS011;60208;48.692;8.948;2023-07-28T05:43:26;4.70;;;3.25;;
72273;SDS011;60208;48.692;8.948;2023-07-28T05:45:52;5.47;;;3.90;;
72273;SDS011;60208;48.692;8.948;2023-07-28T05:48:17;8.23;;;4.05;;
72273;SDS011;60208;48.692;8.948;2023-07-28T05:50:43;5.35;;;3.90;;
72273;SDS011;60208;48.692;8.948;2023-07-28T05:53:08;7.43;;;4.00;;
72273;SDS011;60208;48.692;8.948;2023-07-28T05:55:34;6.18;;;4.25;;
72273;SDS011;60208;48.692;8.948;2023-07-28T05:57:59;10.63;;;4.40;;
72273;SDS011;60208;48.692;8.948;2023-07-28T06:00:25;7.68;;;4.40;;
72273;SDS011;60208;48.692;8.948;2023-07-28T06:03:43;4.88;;;4.10;;
72273;SDS011;60208;48.692;8.948;2023-07-28T06:06:09;5.22;;;4.20;;
72273;SDS011;60208;48.692;8.948;2023-07-28T06:09:25;6.55;;;4.30;;
72273;SDS011;60208;48.692;8.948;2023-07-28T06:12:13;5.53;;;4.22;;
72273;SDS011;60208;48.692;8.948;2023-07-28T06:14:41;5.53;;;3.80;;
72273;SDS011;60208;48.692;8.948;2023-07-28T06:17:06;6.05;;;4.40;;
72273;SDS011;60208;48.692;8.948;2023-07-28T06:19:32;5.22;;;3.70;;
72273;SDS011;60208;48.692;8.948;2023-07-28T06:21:57;5.07;;;3.28;;
72273;SDS011;60208;48.692;8.948;2023-07-28T06:24:23;4.18;;;3.60;;
72273;SDS011;60208;48.692;8.948;2023-07-28T06:26:48;4.68;;;3.42;;
72273;SDS011;60208;48.692;8.948;2023-07-28T06:29:15;4.75;;;3.47;;
72273;SDS011;60208;48.692;8.948;2023-07-28T06:31:43;7.05;;;3.47;;
72273;SDS011;60208;48.692;8.948;2023-07-28T06:34:16;11.65;;;3.40;;
72273;SDS011;60208;48.692;8.948;2023-07-28T06:36:44;5.82;;;3.33;;
72273;SDS011;60208;48.692;8.948;2023-07-28T06:39:09;4.50;;;3.70;;
72273;SDS011;60208;48.692;8.948;2023-07-28T06:41:35;7.10;;;3.88;;
72273;SDS011;60208;48.692;8.948;2023-07-28T06:44:51;4.88;;;3.20;;
72273;SDS011;60208;48.692;8.948;2023-07-28T06:47:23;5.03;;;3.50;;
72273;SDS011;60208;48.692;8.948;2023-07-28T06:50:13;3.65;;;3.28;;
72273;SDS011;60208;48.692;8.948;2023-07-28T06:53:31;5.75;;;3.28;;
72273;SDS011;60208;48.692;8.948;2023-07-28T06:56:50;9.63;;;3.42;;
72273;SDS011;60208;48.692;8.948;2023-07-28T06:59:32;3.90;;;3.50;;
72273;SDS011;60208;48.692;8.948;2023-07-28T07:02:06;3.55;;;3.05;;
72273;SDS011;60208;48.692;8.948;2023-07-28T07:04:31;4.55;;;3.33;;
72273;SDS011;60208;48.692;8.948;2023-07-28T07:06:58;3.92;;;2.95;;
72273;SDS011;60208;48.692;8.948;2023-07-28T07:09:33;5.00;;;2.97;;
72273;SDS011;60208;48.692;8.948;2023-07-28T07:11:59;3.53;;;2.88;;
72273;SDS011;60208;48.692;8.948;2023-07-28T07:14:25;4.35;;;3.38;;
72273;SDS011;60208;48.692;8.948;2023-07-28T07:19:34;4.32;;;3.13;;
72273;SDS011;60208;48.692;8.948;2023-07-28T07:22:00;5.75;;;3.22;;
72273;SDS011;60208;48.692;8.948;2023-07-28T07:24:27;5.88;;;3.47;;
72273;SDS011;60208;48.692;8.948;2023-07-28T07:26:52;4.38;;;3.03;;
72273;SDS011;60208;48.692;8.948;2023-07-28T07:29:18;5.30;;;3.50;;
72273;SDS011;60208;48.692;8.948;2023-07-28T07:31:43;8.23;;;3.20;;
72273;SDS011;60208;48.692;8.948;2023-07-28T07:34:09;9.10;;;3.28;;
72273;SDS011;60208;48.692;8.948;2023-07-28T07:36:34;8.07;;;3.17;;
72273;SDS011;60208;48.692;8.948;2023-07-28T07:38:59;6.70;;;2.70;;
72273;SDS011;60208;48.692;8.948;2023-07-28T07:41:25;3.80;;;2.70;;
72273;SDS011;60208;48.692;8.948;2023-07-28T07:43:55;5.38;;;2.60;;
72273;SDS011;60208;48.692;8.948;2023-07-28T07:46:23;3.22;;;2.40;;
72273;SDS011;60208;48.692;8.948;2023-07-28T07:48:52;3.28;;;2.30;;
72273;SDS011;60208;48.692;8.948;2023-07-28T07:51:30;3.50;;;2.40;;
72273;SDS011;60208;48.692;8.948;2023-07-28T07:54:09;5.05;;;2.67;;
72273;SDS011;60208;48.692;8.948;2023-07-28T07:56:41;3.45;;;2.50;;
72273;SDS011;60208;48.692;8.948;2023-07-28T07:59:06;6.43;;;2.50;;
72273;SDS011;60208;48.692;8.948;2023-07-28T08:01:35;3.53;;;2.20;;
72273;SDS011;60208;48.692;8.948;2023-07-28T08:04:00;2.40;;;2.00;;
72273;SDS011;60208;48.692;8.948;2023-07-28T08:06:26;2.03;;;1.90;;
72273;SDS011;60208;48.692;8.948;2023-07-28T08:08:54;2.35;;;1.98;;
72273;SDS011;60208;48.692;8.948;2023-07-28T08:11:21;2.22;;;2.03;;
72273;SDS011;60208;48.692;8.948;2023-07-28T08:16:37;1.95;;;1.80;;
72273;SDS011;60208;48.692;8.948;2023-07-28T08:19:06;3.45;;;2.03;;
72273;SDS011;60208;48.692;8.948;2023-07-28T08:21:35;2.10;;;1.90;;
72273;SDS011;60208;48.692;8.948;2023-07-28T08:24:37;2.13;;;1.90;;
72273;SDS011;60208;48.692;8.948;2023-07-28T08:27:03;2.17;;;1.73;;
72273;SDS011;60208;48.692;8.948;2023-07-28T08:29:29;2.92;;;1.90;;
72273;SDS011;60208;48.692;8.948;2023-07-28T08:31:58;2.45;;;1.90;;
72273;SDS011;60208;48.692;8.948;2023-07-28T08:34:27;2.03;;;1.83;;
72273;SDS011;60208;48.692;8.948;2023-07-28T08:36:53;2.00;;;1.80;;
72273;SDS011;60208;48.692;8.948;2023-07-28T08:39:20;5.00;;;1.90;;
72273;SDS011;60208;48.692;8.948;2023-07-28T08:41:46;2.10;;;1.90;;
72273;SDS011;60208;48.692;8.948;2023-07-28T08:44:28;2.40;;;1.98;;
72273;SDS011;60208;48.692;8.948;2023-07-28T08:47:02;2.33;;;1.90;;
72273;SDS011;60208;48.692;8.948;2023-07-28T08:49:32;4.80;;;1.90;;
72273;SDS011;60208;48.692;8.948;2023-07-28T08:52:04;3.75;;;1.92;;
72273;SDS011;60208;48.692;8.948;2023-07-28T08:54:29;2.28;;;2.08;;
72273;SDS011;60208;48.692;8.948;2023-07-28T08:56:57;2.10;;;1.80;;
72273;SDS011;60208;48.692;8.948;2023-07-28T08:59:23;2.03;;;1.83;;
72273;SDS011;60208;48.692;8.948;2023-07-28T09:01:57;1.42;;;1.33;;
72273;SDS011;60208;48.692;8.948;2023-07-28T09:04:24;3.42;;;1.42;;
72273;SDS011;60208;48.692;8.948;2023-07-28T09:06:51;2.85;;;1.90;;
72273;SDS011;60208;48.692;8.948;2023-07-28T09:09:17;3.13;;;1.67;;
72273;SDS011;60208;48.692;8.948;2023-07-28T09:11:49;2.58;;;1.80;;
72273;SDS011;60208;48.692;8.948;2023-07-28T09:14:19;1.77;;;1.42;;
72273;SDS011;60208;48.692;8.948;2023-07-28T09:17:21;1.53;;;1.43;;
72273;SDS011;60208;48.692;8.948;2023-07-28T09:20:23;1.58;;;1.48;;
72273;SDS011;60208;48.692;8.948;2023-07-28T09:23:00;2.05;;;1.33;;
72273;SDS011;60208;48.692;8.948;2023-07-28T09:25:33;1.45;;;1.35;;
72273;SDS011;60208;48.692;8.948;2023-07-28T09:28:05;2.53;;;1.42;;
72273;SDS011;60208;48.692;8.948;2023-07-28T09:30:49;1.52;;;1.42;;
72273;SDS011;60208;48.692;8.948;2023-07-28T09:33:33;2.38;;;1.30;;
72273;SDS011;60208;48.692;8.948;2023-07-28T09:36:59;1.67;;;1.45;;
72273;SDS011;60208;48.692;8.948;2023-07-28T09:40:20;2.10;;;1.50;;
72273;SDS011;60208;48.692;8.948;2023-07-28T09:43:39;1.92;;;1.50;;
72273;SDS011;60208;48.692;8.948;2023-07-28T09:46:56;3.45;;;1.45;;
72273;SDS011;60208;48.692;8.948;2023-07-28T09:50:16;1.50;;;1.40;;
72273;SDS011;60208;48.692;8.948;2023-07-28T09:53:38;2.78;;;1.40;;
72273;SDS011;60208;48.692;8.948;2023-07-28T09:56:59;2.05;;;1.38;;
72273;SDS011;60208;48.692;8.948;2023-07-28T10:00:16;2.45;;;1.30;;
72273;SDS011;60208;48.692;8.948;2023-07-28T10:03:36;1.17;;;1.10;;
72273;SDS011;60208;48.692;8.948;2023-07-28T10:06:55;1.38;;;1.27;;
72273;SDS011;60208;48.692;8.948;2023-07-28T10:10:16;1.40;;;1.30;;
72273;SDS011;60208;48.692;8.948;2023-07-28T10:13:39;3.17;;;1.30;;
72273;SDS011;60208;48.692;8.948;2023-07-28T10:17:03;1.88;;;1.42;;
72273;SDS011;60208;48.692;8.948;2023-07-28T10:24:08;2.97;;;1.50;;
72273;SDS011;60208;48.692;8.948;2023-07-28T10:27:09;1.30;;;1.20;;
72273;SDS011;60208;48.692;8.948;2023-07-28T10:30:27;2.42;;;1.50;;
72273;SDS011;60208;48.692;8.948;2023-07-28T10:33:45;1.52;;;1.42;;
72273;SDS011;60208;48.692;8.948;2023-07-28T10:37:04;2.33;;;1.50;;
72273;SDS011;60208;48.692;8.948;2023-07-28T10:40:28;2.70;;;1.80;;
72273;SDS011;60208;48.692;8.948;2023-07-28T10:43:46;2.03;;;1.42;;
72273;SDS011;60208;48.692;8.948;2023-07-28T10:46:51;1.70;;;1.60;;
72273;SDS011;60208;48.692;8.948;2023-07-28T10:50:09;3.70;;;1.70;;
72273;SDS011;60208;48.692;8.948;2023-07-28T10:53:02;1.60;;;1.50;;
72273;SDS011;60208;48.692;8.948;2023-07-28T10:55:47;2.40;;;1.73;;
72273;SDS011;60208;48.692;8.948;2023-07-28T10:59:05;1.95;;;1.77;;
72273;SDS011;60208;48.692;8.948;2023-07-28T11:02:27;2.00;;;1.67;;
72273;SDS011;60208;48.692;8.948;2023-07-28T11:05:45;3.38;;;1.98;;
72273;SDS011;60208;48.692;8.948;2023-07-28T11:09:06;2.22;;;2.03;;
72273;SDS011;60208;48.692;8.948;2023-07-28T11:12:25;2.38;;;2.17;;
72273;SDS011;60208;48.692;8.948;2023-07-28T11:15:31;2.20;;;1.77;;
72273;SDS011;60208;48.692;8.948;2023-07-28T11:18:49;2.90;;;1.90;;
72273;SDS011;60208;48.692;8.948;2023-07-28T11:22:08;2.40;;;2.17;;
72273;SDS011;60208;48.692;8.948;2023-07-28T11:25:28;2.17;;;1.98;;
72273;SDS011;60208;48.692;8.948;2023-07-28T11:27:54;2.30;;;2.10;;
72273;SDS011;60208;48.692;8.948;2023-07-28T11:30:40;2.50;;;2.30;;
72273;SDS011;60208;48.692;8.948;2023-07-28T11:33:08;2.42;;;2.00;;
72273;SDS011;60208;48.692;8.948;2023-07-28T11:35:38;3.67;;;2.35;;
72273;SDS011;60208;48.692;8.948;2023-07-28T11:38:09;2.78;;;2.17;;
72273;SDS011;60208;48.692;8.948;2023-07-28T11:40:44;2.38;;;2.17;;
72273;SDS011;60208;48.692;8.948;2023-07-28T11:43:12;4.05;;;2.50;;
72273;SDS011;60208;48.692;8.948;2023-07-28T11:45:38;2.70;;;2.50;;
72273;SDS011;60208;48.692;8.948;2023-07-28T11:49:09;2.78;;;2.45;;
72273;SDS011;60208;48.692;8.948;2023-07-28T11:52:31;3.10;;;2.80;;
72273;SDS011;60208;48.692;8.948;2023-07-28T11:55:01;2.33;;;2.13;;
72273;SDS011;60208;48.692;8.948;2023-07-28T11:57:55;3.03;;;2.60;;
72273;SDS011;60208;48.692;8.948;2023-07-28T12:00:33;3.00;;;2.58;;
72273;SDS011;60208;48.692;8.948;2023-07-28T12:03:08;5.05;;;2.50;;
72273;SDS011;60208;48.692;8.948;2023-07-28T12:05:35;2.70;;;2.50;;
72273;SDS011;60208;48.692;8.948;2023-07-28T12:08:38;3.45;;;2.38;;
72273;SDS011;60208;48.692;8.948;2023-07-28T12:11:04;3.53;;;2.65;;
72273;SDS011;60208;48.692;8.948;2023-07-28T12:13:29;3.20;;;2.50;;
72273;SDS011;60208;48.692;8.948;2023-07-28T12:15:55;3.28;;;2.50;;
72273;SDS011;60208;48.692;8.948;2023-07-28T12:18:22;4.00;;;2.70;;
72273;SDS011;60208;48.692;8.948;2023-07-28T12:21:40;3.30;;;2.50;;
72273;SDS011;60208;48.692;8.948;2023-07-28T12:25:05;3.08;;;2.47;;
72273;SDS011;60208;48.692;8.948;2023-07-28T12:28:23;2.53;;;2.33;;
72273;SDS011;60208;48.692;8.948;2023-07-28T12:31:41;5.55;;;2.50;;
72273;SDS011;60208;48.692;8.948;2023-07-28T12:34:59;2.50;;;2.17;;
72273;SDS011;60208;48.692;8.948;2023-07-28T12:37:26;2.40;;;2.20;;
72273;SDS011;60208;48.692;8.948;2023-07-28T12:39:51;2.30;;;2.10;;
72273;SDS011;60208;48.692;8.948;2023-07-28T12:42:26;6.45;;;2.53;;
72273;SDS011;60208;48.692;8.948;2023-07-28T12:44:51;2.30;;;2.10;;
72273;SDS011;60208;48.692;8.948;2023-07-28T12:47:17;2.33;;;2.13;;
72273;SDS011;60208;48.692;8.948;2023-07-28T12:50:35;2.40;;;2.20;;
72273;SDS011;60208;48.692;8.948;2023-07-28T12:53:53;2.72;;;2.50;;
72273;SDS011;60208;48.692;8.948;2023-07-28T12:57:11;3.33;;;2.60;;
72273;SDS011;60208;48.692;8.948;2023-07-28T13:00:28;3.05;;;2.67;;
72273;SDS011;60208;48.692;8.948;2023-07-28T13:03:46;2.80;;;2.60;;
72273;SDS011;60208;48.692;8.948;2023-07-28T13:06:12;4.70;;;2.80;;
72273;SDS011;60208;48.692;8.948;2023-07-28T13:08:37;3.58;;;2.75;;
72273;SDS011;60208;48.692;8.948;2023-07-28T13:11:03;3.10;;;2.80;;
72273;SDS011;60208;48.692;8.948;2023-07-28T13:13:35;3.80;;;3.17;;
72273;SDS011;60208;48.692;8.948;2023-07-28T13:16:00;3.65;;;2.83;;
72273;SDS011;60208;48.692;8.948;2023-07-28T13:18:28;4.10;;;3.22;;
72273;SDS011;60208;48.692;8.948;2023-07-28T13:20:56;5.50;;;3.42;;
72273;SDS011;60208;48.692;8.948;2023-07-28T13:23:21;4.25;;;3.50;;
72273;SDS011;60208;48.692;8.948;2023-07-28T13:25:46;4.82;;;3.10;;
72273;SDS011;60208;48.692;8.948;2023-07-28T13:28:12;6.90;;;4.05;;
72273;SDS011;60208;48.692;8.948;2023-07-28T13:30:52;10.82;;;4.70;;
72273;SDS011;60208;48.692;8.948;2023-07-28T13:33:18;7.57;;;4.65;;
72273;SDS011;60208;48.692;8.948;2023-07-28T13:35:43;72.15;;;6.82;;
72273;SDS011;60208;48.692;8.948;2023-07-28T13:38:09;10.82;;;4.63;;
72273;SDS011;60208;48.692;8.948;2023-07-28T13:40:34;7.25;;;4.63;;
72273;SDS011;60208;48.692;8.948;2023-07-28T13:43:10;8.05;;;4.57;;
72273;SDS011;60208;48.692;8.948;2023-07-28T13:46:25;9.90;;;6.03;;
72273;SDS011;60208;48.692;8.948;2023-07-28T13:48:51;4.80;;;4.30;;
72273;SDS011;60208;48.692;8.948;2023-07-28T13:52:09;7.13;;;5.38;;
72273;SDS011;60208;48.692;8.948;2023-07-28T13:54:34;8.50;;;5.47;;
72273;SDS011;60208;48.692;8.948;2023-07-28T13:57:01;12.13;;;7.47;;
72273;SDS011;60208;48.692;8.948;2023-07-28T13:59:26;8.18;;;5.35;;
72273;SDS011;60208;48.692;8.948;2023-07-28T14:01:52;13.10;;;8.43;;
72273;SDS011;60208;48.692;8.948;2023-07-28T14:04:17;16.77;;;8.90;;
72273;SDS011;60208;48.692;8.948;2023-07-28T14:07:20;21.88;;;10.65;;
72273;SDS011;60208;48.692;8.948;2023-07-28T14:10:01;9.82;;;6.88;;
72273;SDS011;60208;48.692;8.948;2023-07-28T14:12:26;10.77;;;7.45;;
72273;SDS011;60208;48.692;8.948;2023-07-28T14:14:52;10.18;;;6.65;;
72273;SDS011;60208;48.692;8.948;2023-07-28T14:17:50;7.10;;;5.22;;
72273;SDS011;60208;48.692;8.948;2023-07-28T14:20:21;9.98;;;6.15;;
72273;SDS011;60208;48.692;8.948;2023-07-28T14:23:39;7.38;;;5.53;;
72273;SDS011;60208;48.692;8.948;2023-07-28T14:26:57;7.78;;;4.97;;
72273;SDS011;60208;48.692;8.948;2023-07-28T14:29:59;8.52;;;5.47;;
72273;SDS011;60208;48.692;8.948;2023-07-28T14:32:28;7.32;;;4.50;;
72273;SDS011;60208;48.692;8.948;2023-07-28T14:34:54;6.13;;;4.75;;
72273;SDS011;60208;48.692;8.948;2023-07-28T14:37:21;6.68;;;4.68;;
72273;SDS011;60208;48.692;8.948;2023-07-28T14:40:05;4.18;;;3.78;;
72273;SDS011;60208;48.692;8.948;2023-07-28T14:42:47;7.78;;;4.82;;
72273;SDS011;60208;48.692;8.948;2023-07-28T14:46:04;5.32;;;4.35;;
72273;SDS011;60208;48.692;8.948;2023-07-28T14:49:21;6.30;;;5.30;;
72273;SDS011;60208;48.692;8.948;2023-07-28T14:52:25;5.05;;;4.28;;
72273;SDS011;60208;48.692;8.948;2023-07-28T14:54:50;5.75;;;4.50;;
72273;SDS011;60208;48.692;8.948;2023-07-28T14:57:55;5.43;;;3.83;;
72273;SDS011;60208;48.692;8.948;2023-07-28T15:01:13;4.30;;;3.40;;
72273;SDS011;60208;48.692;8.948;2023-07-28T15:04:16;7.05;;;4.05;;
72273;SDS011;60208;48.692;8.948;2023-07-28T15:07:34;5.72;;;4.13;;
72273;SDS011;60208;48.692;8.948;2023-07-28T15:10:53;6.68;;;3.90;;
72273;SDS011;60208;48.692;8.948;2023-07-28T15:14:04;4.03;;;3.30;;
72273;SDS011;60208;48.692;8.948;2023-07-28T15:16:31;4.20;;;3.20;;
72273;SDS011;60208;48.692;8.948;2023-07-28T15:19:30;4.28;;;3.67;;
72273;SDS011;60208;48.692;8.948;2023-07-28T15:22:03;3.72;;;3.33;;
72273;SDS011;60208;48.692;8.948;2023-07-28T15:25:12;4.18;;;3.78;;
72273;SDS011;60208;48.692;8.948;2023-07-28T15:28:11;6.28;;;4.43;;
72273;SDS011;60208;48.692;8.948;2023-07-28T15:31:30;7.78;;;4.75;;
72273;SDS011;60208;48.692;8.948;2023-07-28T15:34:39;6.82;;;4.30;;
72273;SDS011;60208;48.692;8.948;2023-07-28T15:37:57;6.40;;;4.40;;
72273;SDS011;60208;48.692;8.948;2023-07-28T15:41:15;6.20;;;4.63;;
72273;SDS011;60208;48.692;8.948;2023-07-28T15:43:40;6.18;;;4.20;;
72273;SDS011;60208;48.692;8.948;2023-07-28T15:46:39;5.93;;;4.70;;
72273;SDS011;60208;48.692;8.948;2023-07-28T15:50:02;6.68;;;5.03;;
72273;SDS011;60208;48.692;8.948;2023-07-28T15:53:20;6.80;;;4.30;;
72273;SDS011;60208;48.692;8.948;2023-07-28T15:56:39;5.82;;;4.50;;
72273;SDS011;60208;48.692;8.948;2023-07-28T15:59:57;10.63;;;4.07;;
72273;SDS011;60208;48.692;8.948;2023-07-28T16:03:15;4.78;;;4.20;;
72273;SDS011;60208;48.692;8.948;2023-07-28T16:06:33;6.72;;;4.20;;
72273;SDS011;60208;48.692;8.948;2023-07-28T16:09:52;6.85;;;4.35;;